AQQ10 IFIS: Internet Flight Information System
logo dgac
Martes 06 de Diciembre del 2022
Buscar por aerodromo o helipuerto
Ingrese nombre de aeródromo, localidad o designador OACI:
METAR del 06-12-2022 a las 07:00 UTC
Para mayor información visite www.meteochile.cl
METAR SCQP 060700Z AUTO 11003KT 9999 OVC026 15/14 Q1016
Viento: dirección 110 grados, velocidad 3 nudos
Visibilidad: 10 km o más
Nubes: Cubierto a 2600 pies sobre el nivel del aeródromo
Temperatura: 15 °C
Rocío: 14 °C
Humedad_relativa: 94%
Presión: 1016 hPa
METAR del 06-12-2022 a las 06:00 UTC
Para mayor información visite www.meteochile.cl
METAR SCQP 060600Z AUTO VRB01KT 9999 OVC023 16/14 Q1016
Viento: dirección variable, velocidad 1 nudos
Visibilidad: 10 km o más
Nubes: Cubierto a 2300 pies sobre el nivel del aeródromo
Temperatura: 16 °C
Rocío: 14 °C
Humedad_relativa: 88%
Presión: 1016 hPa
METAR del 06-12-2022 a las 05:00 UTC
Para mayor información visite www.meteochile.cl
METAR SCQP 060500Z AUTO VRB02KT 9999 OVC023 16/14 Q1017
Viento: dirección variable, velocidad 2 nudos
Visibilidad: 10 km o más
Nubes: Cubierto a 2300 pies sobre el nivel del aeródromo
Temperatura: 16 °C
Rocío: 14 °C
Humedad_relativa: 88%
Presión: 1017 hPa
METAR del 06-12-2022 a las 04:00 UTC
Para mayor información visite www.meteochile.cl
METAR SCQP 060400Z AUTO 28003KT 9999 OVC025 16/14 Q1017
Viento: dirección 280 grados, velocidad 3 nudos
Visibilidad: 10 km o más
Nubes: Cubierto a 2500 pies sobre el nivel del aeródromo
Temperatura: 16 °C
Rocío: 14 °C
Humedad_relativa: 88%
Presión: 1017 hPa
METAR del 06-12-2022 a las 03:00 UTC
Para mayor información visite www.meteochile.cl
METAR SCQP 060300Z AUTO 24003KT 9999 FEW023 OVC027 17/14 Q1018
Viento: dirección 240 grados, velocidad 3 nudos
Visibilidad: 10 km o más
Nubes: Escasa nubosidad a 2300 pies sobre el nivel del aeródromo
Nubes: Cubierto a 2700 pies sobre el nivel del aeródromo
Temperatura: 17 °C
Rocío: 14 °C
Humedad_relativa: 83%
Presión: 1018 hPa
METAR del 06-12-2022 a las 02:00 UTC
Para mayor información visite www.meteochile.cl
METAR SCQP 060200Z AUTO 21005KT 9999 BKN020 OVC031 17/14 Q1018
Viento: dirección 210 grados, velocidad 5 nudos
Visibilidad: 10 km o más
Nubes: Nublado a 2000 pies sobre el nivel del aeródromo
Nubes: Cubierto a 3100 pies sobre el nivel del aeródromo
Temperatura: 17 °C
Rocío: 14 °C
Humedad_relativa: 83%
Presión: 1018 hPa
METAR del 06-12-2022 a las 01:00 UTC
Para mayor información visite www.meteochile.cl
METAR SCQP 060100Z AUTO 14003KT 9999 OVC024 17/14 Q1017
Viento: dirección 140 grados, velocidad 3 nudos
Visibilidad: 10 km o más
Nubes: Cubierto a 2400 pies sobre el nivel del aeródromo
Temperatura: 17 °C
Rocío: 14 °C
Humedad_relativa: 83%
Presión: 1017 hPa
METAR del 06-12-2022 a las 00:00 UTC
Para mayor información visite www.meteochile.cl
METAR SCQP 060000Z VRB02KT 9999 BKN027 17/13 Q1017
Viento: dirección variable, velocidad 2 nudos
Visibilidad: 10 km o más
Nubes: Nublado a 2700 pies sobre el nivel del aeródromo
Temperatura: 17 °C
Rocío: 13 °C
Humedad_relativa: 77%
Presión: 1017 hPa
METAR del 05-12-2022 a las 23:00 UTC
Para mayor información visite www.meteochile.cl
METAR SCQP 052300Z 22005KT 9999 BKN035 18/12 Q1016
Viento: dirección 220 grados, velocidad 5 nudos
Visibilidad: 10 km o más
Nubes: Nublado a 3500 pies sobre el nivel del aeródromo
Temperatura: 18 °C
Rocío: 12 °C
Humedad_relativa: 68%
Presión: 1016 hPa
METAR del 05-12-2022 a las 22:00 UTC
Para mayor información visite www.meteochile.cl
METAR SCQP 052200Z 24010KT 9999 BKN044 19/12 Q1015
Viento: dirección 240 grados, velocidad 10 nudos
Visibilidad: 10 km o más
Nubes: Nublado a 4400 pies sobre el nivel del aeródromo
Temperatura: 19 °C
Rocío: 12 °C
Humedad_relativa: 64%
Presión: 1015 hPa